sensor_id;sensor_type;location;lat;lon;timestamp;pressure;altitude;pressure_sealevel;temperature;humidity
55610;BME280;41486;52.502;13.486;2023-06-22T00:01:34;101346.66;;;21.42;100.00
55610;BME280;41486;52.502;13.486;2023-06-22T00:04:03;101351.19;;;21.90;97.86
55610;BME280;41486;52.502;13.486;2023-06-22T00:06:31;101348.72;;;21.72;98.08
55610;BME280;41486;52.502;13.486;2023-06-22T00:08:59;101347.66;;;21.41;100.00
55610;BME280;41486;52.502;13.486;2023-06-22T00:11:27;101354.22;;;21.31;100.00
55610;BME280;41486;52.502;13.486;2023-06-22T00:13:57;101351.06;;;21.19;100.00
55610;BME280;41486;52.502;13.486;2023-06-22T00:16:25;101356.56;;;21.09;100.00
55610;BME280;41486;52.502;13.486;2023-06-22T00:18:53;101358.38;;;21.41;100.00
55610;BME280;41486;52.502;13.486;2023-06-22T00:21:21;101361.75;;;21.19;100.00
55610;BME280;41486;52.502;13.486;2023-06-22T00:23:49;101365.06;;;21.29;100.00
55610;BME280;41486;52.502;13.486;2023-06-22T00:26:17;101365.59;;;21.00;100.00
55610;BME280;41486;52.502;13.486;2023-06-22T00:28:45;101372.13;;;20.97;100.00
55610;BME280;41486;52.502;13.486;2023-06-22T00:31:15;101383.19;;;21.02;100.00
55610;BME280;41486;52.502;13.486;2023-06-22T00:33:43;101380.50;;;20.94;100.00
55610;BME280;41486;52.502;13.486;2023-06-22T00:36:11;101369.31;;;20.90;100.00
55610;BME280;41486;52.502;13.486;2023-06-22T00:38:43;101367.91;;;21.27;100.00
55610;BME280;41486;52.502;13.486;2023-06-22T00:41:11;101374.31;;;21.02;100.00
55610;BME280;41486;52.502;13.486;2023-06-22T00:43:39;101372.50;;;20.86;100.00
55610;BME280;41486;52.502;13.486;2023-06-22T00:46:09;101379.50;;;20.78;100.00
55610;BME280;41486;52.502;13.486;2023-06-22T00:48:39;101379.63;;;20.69;100.00
55610;BME280;41486;52.502;13.486;2023-06-22T00:51:08;101381.47;;;20.68;100.00
55610;BME280;41486;52.502;13.486;2023-06-22T00:53:38;101383.44;;;20.49;100.00
55610;BME280;41486;52.502;13.486;2023-06-22T00:56:07;101377.44;;;20.72;100.00
55610;BME280;41486;52.502;13.486;2023-06-22T00:58:39;101374.94;;;20.46;100.00
55610;BME280;41486;52.502;13.486;2023-06-22T01:01:08;101376.63;;;20.55;100.00
55610;BME280;41486;52.502;13.486;2023-06-22T01:03:38;101384.16;;;20.60;100.00
55610;BME280;41486;52.502;13.486;2023-06-22T01:06:09;101381.13;;;20.55;100.00
55610;BME280;41486;52.502;13.486;2023-06-22T01:08:42;101390.50;;;20.59;100.00
55610;BME280;41486;52.502;13.486;2023-06-22T01:11:19;101379.31;;;20.63;100.00
55610;BME280;41486;52.502;13.486;2023-06-22T01:13:52;101382.13;;;20.54;100.00
55610;BME280;41486;52.502;13.486;2023-06-22T01:16:29;101386.13;;;20.58;100.00
55610;BME280;41486;52.502;13.486;2023-06-22T01:19:07;101388.13;;;20.47;100.00
55610;BME280;41486;52.502;13.486;2023-06-22T01:21:41;101390.31;;;20.52;100.00
55610;BME280;41486;52.502;13.486;2023-06-22T01:24:15;101388.13;;;20.31;100.00
55610;BME280;41486;52.502;13.486;2023-06-22T01:26:55;101385.75;;;20.28;100.00
55610;BME280;41486;52.502;13.486;2023-06-22T01:29:28;101389.25;;;20.28;100.00
55610;BME280;41486;52.502;13.486;2023-06-22T01:31:57;101396.75;;;20.25;100.00
55610;BME280;41486;52.502;13.486;2023-06-22T01:34:29;101389.09;;;20.22;100.00
55610;BME280;41486;52.502;13.486;2023-06-22T01:36:59;101396.09;;;20.23;100.00
55610;BME280;41486;52.502;13.486;2023-06-22T01:39:29;101394.47;;;20.38;100.00
55610;BME280;41486;52.502;13.486;2023-06-22T01:41:59;101404.47;;;20.28;100.00
55610;BME280;41486;52.502;13.486;2023-06-22T01:44:29;101403.28;;;20.30;100.00
55610;BME280;41486;52.502;13.486;2023-06-22T01:46:57;101403.25;;;20.14;100.00
55610;BME280;41486;52.502;13.486;2023-06-22T01:49:27;101409.75;;;20.11;100.00
55610;BME280;41486;52.502;13.486;2023-06-22T01:51:56;101406.41;;;20.09;100.00
55610;BME280;41486;52.502;13.486;2023-06-22T01:54:27;101408.91;;;20.02;100.00
55610;BME280;41486;52.502;13.486;2023-06-22T01:56:55;101407.72;;;19.97;100.00
55610;BME280;41486;52.502;13.486;2023-06-22T01:59:31;101412.22;;;20.05;100.00
55610;BME280;41486;52.502;13.486;2023-06-22T02:02:03;101407.41;;;20.08;100.00
55610;BME280;41486;52.502;13.486;2023-06-22T02:04:38;101410.28;;;20.15;100.00
55610;BME280;41486;52.502;13.486;2023-06-22T02:07:14;101408.38;;;20.07;100.00
55610;BME280;41486;52.502;13.486;2023-06-22T02:09:45;101413.22;;;20.04;100.00
55610;BME280;41486;52.502;13.486;2023-06-22T02:12:18;101408.72;;;20.04;100.00
55610;BME280;41486;52.502;13.486;2023-06-22T02:14:52;101403.00;;;19.91;100.00
55610;BME280;41486;52.502;13.486;2023-06-22T02:17:21;101407.38;;;20.00;100.00
55610;BME280;41486;52.502;13.486;2023-06-22T02:19:50;101403.53;;;19.94;100.00
55610;BME280;41486;52.502;13.486;2023-06-22T02:22:19;101412.59;;;19.83;100.00
55610;BME280;41486;52.502;13.486;2023-06-22T02:24:47;101420.38;;;19.95;100.00
55610;BME280;41486;52.502;13.486;2023-06-22T02:27:15;101420.50;;;19.85;100.00
55610;BME280;41486;52.502;13.486;2023-06-22T02:29:43;101425.44;;;20.06;100.00
55610;BME280;41486;52.502;13.486;2023-06-22T02:32:13;101417.19;;;19.91;100.00
55610;BME280;41486;52.502;13.486;2023-06-22T02:34:44;101424.13;;;19.84;100.00
55610;BME280;41486;52.502;13.486;2023-06-22T02:37:15;101427.56;;;19.94;100.00
55610;BME280;41486;52.502;13.486;2023-06-22T02:39:45;101434.06;;;20.00;100.00
55610;BME280;41486;52.502;13.486;2023-06-22T02:42:13;101427.41;;;19.96;100.00
55610;BME280;41486;52.502;13.486;2023-06-22T02:44:42;101422.69;;;19.90;100.00
55610;BME280;41486;52.502;13.486;2023-06-22T02:47:13;101426.03;;;19.92;100.00
55610;BME280;41486;52.502;13.486;2023-06-22T02:49:41;101425.09;;;20.09;100.00
55610;BME280;41486;52.502;13.486;2023-06-22T02:52:11;101429.97;;;20.14;100.00
55610;BME280;41486;52.502;13.486;2023-06-22T02:54:39;101426.31;;;20.15;100.00
55610;BME280;41486;52.502;13.486;2023-06-22T02:57:07;101426.81;;;20.18;100.00
55610;BME280;41486;52.502;13.486;2023-06-22T02:59:41;101426.00;;;20.18;100.00
55610;BME280;41486;52.502;13.486;2023-06-22T03:02:12;101423.47;;;20.25;100.00
55610;BME280;41486;52.502;13.486;2023-06-22T03:04:41;101424.88;;;20.37;100.00
55610;BME280;41486;52.502;13.486;2023-06-22T03:07:10;101422.00;;;20.30;100.00
55610;BME280;41486;52.502;13.486;2023-06-22T03:09:38;101424.00;;;20.28;100.00
55610;BME280;41486;52.502;13.486;2023-06-22T03:12:07;101420.69;;;20.35;100.00
55610;BME280;41486;52.502;13.486;2023-06-22T03:14:44;101427.16;;;20.24;100.00
55610;BME280;41486;52.502;13.486;2023-06-22T03:17:13;101424.13;;;20.18;100.00
55610;BME280;41486;52.502;13.486;2023-06-22T03:19:41;101422.84;;;20.23;100.00
55610;BME280;41486;52.502;13.486;2023-06-22T03:22:09;101424.34;;;20.25;100.00
55610;BME280;41486;52.502;13.486;2023-06-22T03:24:40;101426.50;;;20.22;100.00
55610;BME280;41486;52.502;13.486;2023-06-22T03:27:08;101424.00;;;20.28;100.00
55610;BME280;41486;52.502;13.486;2023-06-22T03:29:36;101420.81;;;20.25;100.00
55610;BME280;41486;52.502;13.486;2023-06-22T03:32:05;101422.13;;;20.12;100.00
55610;BME280;41486;52.502;13.486;2023-06-22T03:34:35;101416.94;;;20.19;100.00
55610;BME280;41486;52.502;13.486;2023-06-22T03:37:04;101413.72;;;20.07;100.00
55610;BME280;41486;52.502;13.486;2023-06-22T03:39:32;101416.59;;;20.14;100.00
55610;BME280;41486;52.502;13.486;2023-06-22T03:42:00;101422.47;;;20.17;100.00
55610;BME280;41486;52.502;13.486;2023-06-22T03:44:28;101422.81;;;20.14;100.00
55610;BME280;41486;52.502;13.486;2023-06-22T03:46:56;101425.78;;;20.11;100.00
55610;BME280;41486;52.502;13.486;2023-06-22T03:49:24;101426.44;;;20.05;100.00
55610;BME280;41486;52.502;13.486;2023-06-22T03:51:53;101425.28;;;20.08;100.00
55610;BME280;41486;52.502;13.486;2023-06-22T03:54:21;101420.97;;;20.15;100.00
55610;BME280;41486;52.502;13.486;2023-06-22T03:56:50;101426.50;;;20.22;100.00
55610;BME280;41486;52.502;13.486;2023-06-22T03:59:17;101429.47;;;20.18;100.00
55610;BME280;41486;52.502;13.486;2023-06-22T04:01:45;101427.47;;;20.12;100.00
55610;BME280;41486;52.502;13.486;2023-06-22T04:04:14;101423.16;;;20.20;100.00
55610;BME280;41486;52.502;13.486;2023-06-22T04:06:42;101427.63;;;20.11;100.00
55610;BME280;41486;52.502;13.486;2023-06-22T04:09:11;101425.91;;;20.01;100.00
55610;BME280;41486;52.502;13.486;2023-06-22T04:11:39;101435.78;;;20.09;100.00
55610;BME280;41486;52.502;13.486;2023-06-22T04:14:07;101434.97;;;20.09;100.00
55610;BME280;41486;52.502;13.486;2023-06-22T04:16:35;101432.13;;;20.10;100.00
55610;BME280;41486;52.502;13.486;2023-06-22T04:19:03;101435.81;;;20.17;100.00
55610;BME280;41486;52.502;13.486;2023-06-22T04:21:31;101441.56;;;20.31;100.00
55610;BME280;41486;52.502;13.486;2023-06-22T04:23:59;101438.25;;;20.45;100.00
55610;BME280;41486;52.502;13.486;2023-06-22T04:26:29;101441.84;;;20.20;100.00
55610;BME280;41486;52.502;13.486;2023-06-22T04:28:57;101447.34;;;20.10;100.00
55610;BME280;41486;52.502;13.486;2023-06-22T04:31:25;101445.19;;;20.13;100.00
55610;BME280;41486;52.502;13.486;2023-06-22T04:34:00;101451.03;;;20.17;100.00
55610;BME280;41486;52.502;13.486;2023-06-22T04:36:37;101453.78;;;20.33;100.00
55610;BME280;41486;52.502;13.486;2023-06-22T04:39:06;101454.94;;;20.47;100.00
55610;BME280;41486;52.502;13.486;2023-06-22T04:41:37;101448.91;;;20.29;100.00
55610;BME280;41486;52.502;13.486;2023-06-22T04:44:12;101455.47;;;20.51;100.00
55610;BME280;41486;52.502;13.486;2023-06-22T04:46:51;101462.63;;;20.42;100.00
55610;BME280;41486;52.502;13.486;2023-06-22T04:49:21;101460.09;;;20.32;100.00
55610;BME280;41486;52.502;13.486;2023-06-22T04:51:49;101462.63;;;20.42;100.00
55610;BME280;41486;52.502;13.486;2023-06-22T04:54:18;101457.66;;;20.64;100.00
55610;BME280;41486;52.502;13.486;2023-06-22T04:56:48;101461.69;;;20.60;100.00
55610;BME280;41486;52.502;13.486;2023-06-22T04:59:23;101464.75;;;20.73;100.00
55610;BME280;41486;52.502;13.486;2023-06-22T05:01:54;101462.00;;;20.57;100.00
55610;BME280;41486;52.502;13.486;2023-06-22T05:04:22;101464.34;;;20.60;100.00
55610;BME280;41486;52.502;13.486;2023-06-22T05:06:51;101462.69;;;20.67;100.00
55610;BME280;41486;52.502;13.486;2023-06-22T05:09:19;101464.28;;;20.94;100.00
55610;BME280;41486;52.502;13.486;2023-06-22T05:11:49;101457.09;;;20.87;100.00
55610;BME280;41486;52.502;13.486;2023-06-22T05:14:18;101460.09;;;21.00;100.00
55610;BME280;41486;52.502;13.486;2023-06-22T05:16:46;101465.63;;;21.15;100.00
55610;BME280;41486;52.502;13.486;2023-06-22T05:19:14;101460.78;;;21.19;100.00
55610;BME280;41486;52.502;13.486;2023-06-22T05:21:43;101457.75;;;21.38;100.00
55610;BME280;41486;52.502;13.486;2023-06-22T05:24:12;101460.94;;;21.34;100.00
55610;BME280;41486;52.502;13.486;2023-06-22T05:26:40;101466.94;;;21.52;100.00
55610;BME280;41486;52.502;13.486;2023-06-22T05:29:09;101464.28;;;21.44;100.00
55610;BME280;41486;52.502;13.486;2023-06-22T05:31:38;101469.81;;;21.59;100.00
55610;BME280;41486;52.502;13.486;2023-06-22T05:34:07;101470.47;;;21.61;100.00
55610;BME280;41486;52.502;13.486;2023-06-22T05:36:35;101473.78;;;21.55;99.96
55610;BME280;41486;52.502;13.486;2023-06-22T05:39:11;101471.31;;;21.62;100.00
55610;BME280;41486;52.502;13.486;2023-06-22T05:41:40;101466.22;;;21.83;98.92
55610;BME280;41486;52.502;13.486;2023-06-22T05:44:11;101470.81;;;21.66;98.00
55610;BME280;41486;52.502;13.486;2023-06-22T05:46:41;101474.63;;;21.64;97.42
55610;BME280;41486;52.502;13.486;2023-06-22T05:49:11;101480.13;;;21.87;96.06
55610;BME280;41486;52.502;13.486;2023-06-22T05:51:43;101484.94;;;22.00;95.21
55610;BME280;41486;52.502;13.486;2023-06-22T05:54:13;101492.13;;;21.99;95.02
55610;BME280;41486;52.502;13.486;2023-06-22T05:56:45;101498.56;;;21.82;93.91
55610;BME280;41486;52.502;13.486;2023-06-22T05:59:14;101501.56;;;21.87;91.41
55610;BME280;41486;52.502;13.486;2023-06-22T06:01:42;101499.19;;;21.92;92.29
55610;BME280;41486;52.502;13.486;2023-06-22T06:04:10;101499.09;;;21.69;92.17
55610;BME280;41486;52.502;13.486;2023-06-22T06:06:38;101501.88;;;21.84;93.53
55610;BME280;41486;52.502;13.486;2023-06-22T06:09:07;101503.41;;;21.95;92.45
55610;BME280;41486;52.502;13.486;2023-06-22T06:11:35;101501.50;;;22.03;88.67
55610;BME280;41486;52.502;13.486;2023-06-22T06:14:03;101494.97;;;22.06;90.62
55610;BME280;41486;52.502;13.486;2023-06-22T06:16:33;101496.41;;;21.77;90.55
55610;BME280;41486;52.502;13.486;2023-06-22T06:19:01;101496.19;;;21.95;90.51
55610;BME280;41486;52.502;13.486;2023-06-22T06:21:29;101490.13;;;22.01;89.84
55610;BME280;41486;52.502;13.486;2023-06-22T06:23:57;101482.09;;;21.93;92.14
55610;BME280;41486;52.502;13.486;2023-06-22T06:26:26;101476.94;;;21.92;92.76
55610;BME280;41486;52.502;13.486;2023-06-22T06:28:59;101473.91;;;21.95;92.68
55610;BME280;41486;52.502;13.486;2023-06-22T06:31:29;101478.88;;;22.06;93.91
55610;BME280;41486;52.502;13.486;2023-06-22T06:33:58;101476.81;;;22.25;92.81
55610;BME280;41486;52.502;13.486;2023-06-22T06:36:26;101493.00;;;22.31;92.28
55610;BME280;41486;52.502;13.486;2023-06-22T06:38:54;101500.03;;;22.41;91.70
55610;BME280;41486;52.502;13.486;2023-06-22T06:41:22;101498.00;;;22.51;87.87
55610;BME280;41486;52.502;13.486;2023-06-22T06:43:50;101494.06;;;22.62;88.30
55610;BME280;41486;52.502;13.486;2023-06-22T06:46:19;101495.00;;;22.77;85.69
55610;BME280;41486;52.502;13.486;2023-06-22T06:48:47;101501.56;;;22.75;84.00
55610;BME280;41486;52.502;13.486;2023-06-22T06:51:16;101487.22;;;22.91;82.69
55610;BME280;41486;52.502;13.486;2023-06-22T06:53:44;101490.66;;;22.99;83.15
55610;BME280;41486;52.502;13.486;2023-06-22T06:56:12;101477.16;;;23.08;82.56
55610;BME280;41486;52.502;13.486;2023-06-22T06:58:41;101479.03;;;23.30;82.25
55610;BME280;41486;52.502;13.486;2023-06-22T07:01:11;101475.59;;;23.37;79.66
55610;BME280;41486;52.502;13.486;2023-06-22T07:03:39;101482.25;;;23.26;79.05
55610;BME280;41486;52.502;13.486;2023-06-22T07:06:08;101478.91;;;23.24;79.48
55610;BME280;41486;52.502;13.486;2023-06-22T07:08:38;101474.72;;;23.21;79.39
55610;BME280;41486;52.502;13.486;2023-06-22T07:11:06;101475.59;;;23.22;77.14
55610;BME280;41486;52.502;13.486;2023-06-22T07:13:35;101470.03;;;23.23;79.48
55610;BME280;41486;52.502;13.486;2023-06-22T07:16:03;101458.94;;;23.26;79.88
55610;BME280;41486;52.502;13.486;2023-06-22T07:18:31;101460.09;;;23.24;79.76
55610;BME280;41486;52.502;13.486;2023-06-22T07:20:59;101461.34;;;23.36;77.05
55610;BME280;41486;52.502;13.486;2023-06-22T07:23:28;101443.13;;;23.46;75.12
55610;BME280;41486;52.502;13.486;2023-06-22T07:25:57;101450.84;;;23.65;75.28
55610;BME280;41486;52.502;13.486;2023-06-22T07:28:28;101450.84;;;23.79;70.24
55610;BME280;41486;52.502;13.486;2023-06-22T07:30:57;101449.53;;;23.90;66.41
55610;BME280;41486;52.502;13.486;2023-06-22T07:33:26;101444.56;;;24.02;67.99
55610;BME280;41486;52.502;13.486;2023-06-22T07:35:54;101440.34;;;24.15;67.89
55610;BME280;41486;52.502;13.486;2023-06-22T07:38:23;101451.72;;;24.32;68.61
55610;BME280;41486;52.502;13.486;2023-06-22T07:40:51;101449.09;;;24.02;68.63
55610;BME280;41486;52.502;13.486;2023-06-22T07:43:22;101443.50;;;24.18;68.98
55610;BME280;41486;52.502;13.486;2023-06-22T07:45:51;101446.47;;;24.23;66.35
55610;BME280;41486;52.502;13.486;2023-06-22T07:48:20;101447.97;;;24.11;65.33
55610;BME280;41486;52.502;13.486;2023-06-22T07:50:49;101448.47;;;24.36;66.23
55610;BME280;41486;52.502;13.486;2023-06-22T07:53:17;101447.66;;;24.57;65.63
55610;BME280;41486;52.502;13.486;2023-06-22T07:55:45;101447.03;;;24.55;62.80
55610;BME280;41486;52.502;13.486;2023-06-22T07:58:16;101451.72;;;24.68;60.55
55610;BME280;41486;52.502;13.486;2023-06-22T08:00:47;101449.00;;;24.83;57.56
55610;BME280;41486;52.502;13.486;2023-06-22T08:03:15;101439.44;;;24.81;57.20
55610;BME280;41486;52.502;13.486;2023-06-22T08:05:44;101446.50;;;24.82;57.01
55610;BME280;41486;52.502;13.486;2023-06-22T08:08:12;101448.53;;;25.01;57.49
55610;BME280;41486;52.502;13.486;2023-06-22T08:10:41;101438.03;;;24.85;56.40
55610;BME280;41486;52.502;13.486;2023-06-22T08:13:10;101438.94;;;24.70;54.80
55610;BME280;41486;52.502;13.486;2023-06-22T08:15:38;101448.09;;;24.61;53.99
55610;BME280;41486;52.502;13.486;2023-06-22T08:18:07;101447.53;;;24.66;53.35
55610;BME280;41486;52.502;13.486;2023-06-22T08:20:35;101451.03;;;24.81;53.55
55610;BME280;41486;52.502;13.486;2023-06-22T08:23:03;101447.72;;;24.79;54.18
55610;BME280;41486;52.502;13.486;2023-06-22T08:25:32;101447.81;;;25.14;56.33
55610;BME280;41486;52.502;13.486;2023-06-22T08:28:01;101455.28;;;25.41;56.57
55610;BME280;41486;52.502;13.486;2023-06-22T08:30:29;101444.66;;;25.11;57.54
55610;BME280;41486;52.502;13.486;2023-06-22T08:32:57;101449.13;;;25.25;57.23
55610;BME280;41486;52.502;13.486;2023-06-22T08:35:27;101442.97;;;25.03;56.98
55610;BME280;41486;52.502;13.486;2023-06-22T08:37:56;101445.34;;;25.41;57.24
55610;BME280;41486;52.502;13.486;2023-06-22T08:40:24;101444.75;;;25.46;57.04
55610;BME280;41486;52.502;13.486;2023-06-22T08:42:52;101444.34;;;25.42;57.37
55610;BME280;41486;52.502;13.486;2023-06-22T08:45:21;101441.94;;;25.32;55.17
55610;BME280;41486;52.502;13.486;2023-06-22T08:47:49;101444.41;;;25.56;55.52
55610;BME280;41486;52.502;13.486;2023-06-22T08:50:17;101436.53;;;25.32;54.80
55610;BME280;41486;52.502;13.486;2023-06-22T08:52:46;101445.69;;;25.60;54.96
55610;BME280;41486;52.502;13.486;2023-06-22T08:55:14;101444.03;;;25.65;54.67
55610;BME280;41486;52.502;13.486;2023-06-22T08:57:43;101443.81;;;25.95;54.84
55610;BME280;41486;52.502;13.486;2023-06-22T09:00:14;101442.84;;;25.75;55.63
55610;BME280;41486;52.502;13.486;2023-06-22T09:02:44;101452.84;;;25.81;56.52
55610;BME280;41486;52.502;13.486;2023-06-22T09:05:13;101442.16;;;26.01;53.32
55610;BME280;41486;52.502;13.486;2023-06-22T09:07:41;101443.09;;;26.22;53.66
55610;BME280;41486;52.502;13.486;2023-06-22T09:10:11;101433.00;;;26.37;51.30
55610;BME280;41486;52.502;13.486;2023-06-22T09:12:39;101436.81;;;26.08;51.20
55610;BME280;41486;52.502;13.486;2023-06-22T09:15:09;101441.22;;;26.22;50.75
55610;BME280;41486;52.502;13.486;2023-06-22T09:17:43;101442.41;;;26.06;49.75
55610;BME280;41486;52.502;13.486;2023-06-22T09:20:14;101434.31;;;26.06;49.96
55610;BME280;41486;52.502;13.486;2023-06-22T09:22:42;101429.25;;;26.45;50.77
55610;BME280;41486;52.502;13.486;2023-06-22T09:25:12;101432.31;;;26.22;49.81
55610;BME280;41486;52.502;13.486;2023-06-22T09:27:40;101426.56;;;26.52;49.63
55610;BME280;41486;52.502;13.486;2023-06-22T09:30:08;101427.00;;;26.55;49.74
55610;BME280;41486;52.502;13.486;2023-06-22T09:32:37;101427.34;;;26.25;49.17
55610;BME280;41486;52.502;13.486;2023-06-22T09:35:06;101426.84;;;26.84;48.03
55610;BME280;41486;52.502;13.486;2023-06-22T09:37:40;101420.13;;;26.46;49.40
55610;BME280;41486;52.502;13.486;2023-06-22T09:40:09;101420.97;;;26.53;49.66
55610;BME280;41486;52.502;13.486;2023-06-22T09:42:41;101426.88;;;27.04;49.26
55610;BME280;41486;52.502;13.486;2023-06-22T09:45:09;101417.91;;;27.10;48.48
55610;BME280;41486;52.502;13.486;2023-06-22T09:47:37;101427.69;;;26.77;49.00
55610;BME280;41486;52.502;13.486;2023-06-22T09:50:06;101422.28;;;27.04;49.69
55610;BME280;41486;52.502;13.486;2023-06-22T09:52:35;101419.38;;;26.86;47.28
55610;BME280;41486;52.502;13.486;2023-06-22T09:55:07;101413.56;;;27.16;47.61
55610;BME280;41486;52.502;13.486;2023-06-22T09:57:35;101421.25;;;27.12;48.07
55610;BME280;41486;52.502;13.486;2023-06-22T10:00:07;101408.56;;;27.13;48.42
55610;BME280;41486;52.502;13.486;2023-06-22T10:02:38;101407.75;;;27.12;49.20
55610;BME280;41486;52.502;13.486;2023-06-22T11:09:09;101370.75;;;29.87;38.86
55610;BME280;41486;52.502;13.486;2023-06-22T11:11:43;101364.72;;;30.04;39.98
55610;BME280;41486;52.502;13.486;2023-06-22T11:14:11;101361.19;;;30.03;40.03
55610;BME280;41486;52.502;13.486;2023-06-22T11:16:39;101360.25;;;29.42;40.05
55610;BME280;41486;52.502;13.486;2023-06-22T11:19:07;101370.63;;;29.45;40.37
55610;BME280;41486;52.502;13.486;2023-06-22T11:21:35;101361.63;;;28.31;41.10
55610;BME280;41486;52.502;13.486;2023-06-22T11:24:05;101365.16;;;28.25;41.84
55610;BME280;41486;52.502;13.486;2023-06-22T11:26:35;101360.63;;;29.46;40.81
55610;BME280;41486;52.502;13.486;2023-06-22T11:29:05;101352.09;;;29.61;39.38
55610;BME280;41486;52.502;13.486;2023-06-22T11:31:40;101342.69;;;31.26;37.88
55610;BME280;41486;52.502;13.486;2023-06-22T11:34:09;101348.34;;;31.36;36.61
55610;BME280;41486;52.502;13.486;2023-06-22T11:36:37;101344.38;;;31.56;35.68
55610;BME280;41486;52.502;13.486;2023-06-22T11:39:05;101351.38;;;32.55;33.46
55610;BME280;41486;52.502;13.486;2023-06-22T11:41:39;101341.03;;;30.89;35.64
55610;BME280;41486;52.502;13.486;2023-06-22T11:44:07;101345.75;;;30.70;36.29
55610;BME280;41486;52.502;13.486;2023-06-22T11:46:36;101341.06;;;31.13;36.58
55610;BME280;41486;52.502;13.486;2023-06-22T11:49:04;101344.91;;;30.93;36.14
55610;BME280;41486;52.502;13.486;2023-06-22T11:51:34;101346.56;;;31.30;36.05
55610;BME280;41486;52.502;13.486;2023-06-22T12:59:08;101274.09;;;32.10;35.19
55610;BME280;41486;52.502;13.486;2023-06-22T13:01:36;101274.47;;;31.68;36.31
55610;BME280;41486;52.502;13.486;2023-06-22T13:04:04;101278.72;;;32.10;35.85
55610;BME280;41486;52.502;13.486;2023-06-22T13:06:33;101270.38;;;33.07;34.22
55610;BME280;41486;52.502;13.486;2023-06-22T13:09:01;101271.91;;;32.41;34.97
55610;BME280;41486;52.502;13.486;2023-06-22T13:11:32;101276.53;;;33.42;34.08
55610;BME280;41486;52.502;13.486;2023-06-22T13:14:00;101279.13;;;33.09;33.56
55610;BME280;41486;52.502;13.486;2023-06-22T13:16:33;101273.50;;;33.38;33.05
55610;BME280;41486;52.502;13.486;2023-06-22T13:19:02;101265.84;;;33.62;33.14
55610;BME280;41486;52.502;13.486;2023-06-22T13:21:30;101261.97;;;34.18;32.53
55610;BME280;41486;52.502;13.486;2023-06-22T13:23:58;101260.75;;;33.99;32.11
55610;BME280;41486;52.502;13.486;2023-06-22T13:26:26;101259.59;;;33.67;32.61
55610;BME280;41486;52.502;13.486;2023-06-22T13:28:55;101245.69;;;34.34;32.22
55610;BME280;41486;52.502;13.486;2023-06-22T13:31:23;101249.41;;;33.57;33.07
55610;BME280;41486;52.502;13.486;2023-06-22T13:33:53;101244.56;;;33.37;33.08
55610;BME280;41486;52.502;13.486;2023-06-22T13:36:23;101245.91;;;32.90;33.92
55610;BME280;41486;52.502;13.486;2023-06-22T13:38:52;101250.31;;;32.57;34.42
55610;BME280;41486;52.502;13.486;2023-06-22T13:41:19;101245.91;;;31.13;36.55
55610;BME280;41486;52.502;13.486;2023-06-22T13:43:47;101236.50;;;30.80;37.23
55610;BME280;41486;52.502;13.486;2023-06-22T13:46:16;101237.91;;;32.10;36.31
55610;BME280;41486;52.502;13.486;2023-06-22T13:48:44;101234.94;;;32.46;35.46
55610;BME280;41486;52.502;13.486;2023-06-22T13:51:13;101230.97;;;31.56;36.25
55610;BME280;41486;52.502;13.486;2023-06-22T13:53:41;101226.00;;;30.48;37.55
55610;BME280;41486;52.502;13.486;2023-06-22T13:56:09;101221.72;;;30.99;38.40
55610;BME280;41486;52.502;13.486;2023-06-22T13:58:37;101208.59;;;31.37;37.14
55610;BME280;41486;52.502;13.486;2023-06-22T14:01:05;101208.13;;;32.20;35.86
55610;BME280;41486;52.502;13.486;2023-06-22T14:03:33;101196.59;;;32.92;35.29
55610;BME280;41486;52.502;13.486;2023-06-22T14:06:01;101193.59;;;31.98;36.55
55610;BME280;41486;52.502;13.486;2023-06-22T14:08:32;101196.22;;;32.44;35.39
55610;BME280;41486;52.502;13.486;2023-06-22T14:11:08;101186.13;;;32.05;35.83
55610;BME280;41486;52.502;13.486;2023-06-22T14:13:36;101181.53;;;32.10;35.85
55610;BME280;41486;52.502;13.486;2023-06-22T14:16:04;101171.06;;;32.19;35.26
55610;BME280;41486;52.502;13.486;2023-06-22T14:18:32;101180.72;;;32.10;36.10
55610;BME280;41486;52.502;13.486;2023-06-22T14:21:00;101171.78;;;30.65;37.52
55610;BME280;41486;52.502;13.486;2023-06-22T14:23:28;101164.84;;;30.98;37.37
55610;BME280;41486;52.502;13.486;2023-06-22T14:26:00;101165.88;;;31.67;36.56
55610;BME280;41486;52.502;13.486;2023-06-22T14:28:28;101165.84;;;31.50;36.74
55610;BME280;41486;52.502;13.486;2023-06-22T14:30:57;101158.41;;;31.91;35.79
55610;BME280;41486;52.502;13.486;2023-06-22T14:33:25;101150.81;;;31.01;37.68
55610;BME280;41486;52.502;13.486;2023-06-22T14:35:53;101156.84;;;31.49;37.59
55610;BME280;41486;52.502;13.486;2023-06-22T14:38:21;101148.16;;;31.06;38.11
55610;BME280;41486;52.502;13.486;2023-06-22T14:40:49;101157.94;;;32.16;36.03
55610;BME280;41486;52.502;13.486;2023-06-22T14:43:38;101160.47;;;31.84;36.16
55610;BME280;41486;52.502;13.486;2023-06-22T14:46:06;101158.22;;;31.98;36.43
55610;BME280;41486;52.502;13.486;2023-06-22T14:48:35;101152.78;;;32.15;35.76
55610;BME280;41486;52.502;13.486;2023-06-22T14:51:03;101134.47;;;31.76;36.60
55610;BME280;41486;52.502;13.486;2023-06-22T14:53:31;101129.31;;;30.99;37.08
55610;BME280;41486;52.502;13.486;2023-06-22T14:55:59;101122.16;;;30.81;38.02